Pagina principale
METAR-TAF:

METAR-TAF

Aeroporti :

Aeroporto di Gibilterra

Gibilterra, Gibilterra

latitudine: 36-09N, longitudine: 005-21W, altezza: 5 m

Osservazione

Il bollettino è stato emesso 1 ora e 1 minuti fa, alle 17:50 UTC
Vento 9 kt da ovest
Temperature 21°C
Umidità 53%
Pressione 1013 hPa
Visibilità 10 km o più
Poco nuvoloso ad un'altezza di 4000 ft

METAR: LXGB 251750Z 28009KT 9999 FEW040 21/11 Q1013 NOSIG

Ora: 20:51 (18:51 UTC)

Previsione

Il bollettino è stato emesso 29 ore e 1 minuti fa, alle 13:50 UTC
Previsione valida dal 24 alle 15 UTC al 24 alle 22 UTC
Vento 10 kt da ovest
Visibilità 10 km o più
Poco nuvoloso ad un'altezza di 3000 ft
Probabilità 30% :
Temporaneamente
dal 24 alle 15 UTC al 24 alle 18 UTC
Vento 15 kt da sud-ovest con raffiche fino a 25 kt
Nubi sparse ad un'altezza di 2200 ft

TAF: LXGB 241350Z 2415/2422 26010KT 9999 FEW030 PROB30 TEMPO 2415/2418 23015G25KT SCT022 520002

Osservazioni e previsioni meteorologiche di più di 4000 aeroporti (messaggi METAR e TAF).

Le stazioni disponibili sono rappresentate dai dischi gialli e rossi sulla carta.

Puntare il mouse per vedere il nome della stazione.

Clicca sopra per visualizzare le osservazioni e previsioni meteorologiche.

Per cambiare la mappa : fare clic sui pulsanti verdi con una croce nera per ingrandire, il pulsante verde con un trattino per diminuire, o sulla freccia verde per le mappe adiacenti.


METAR-TAF: